createdAt,value
2022-08-25T00:01:04.247Z,2.40
2022-08-25T00:03:54.259Z,3.00
2022-08-25T00:06:45.390Z,2.30
2022-08-25T00:09:34.811Z,2.40
2022-08-25T00:12:24.266Z,3.80
2022-08-25T00:15:13.742Z,2.73
2022-08-25T00:18:02.982Z,2.77
2022-08-25T00:20:53.578Z,3.20
2022-08-25T00:23:43.902Z,2.43
2022-08-25T00:26:32.820Z,2.33
2022-08-25T00:29:21.853Z,2.70
2022-08-25T00:32:11.137Z,2.80
2022-08-25T00:35:00.708Z,2.20
2022-08-25T00:37:49.571Z,2.20
2022-08-25T00:40:40.461Z,2.60
2022-08-25T00:43:29.305Z,3.07
2022-08-25T00:46:19.520Z,2.53
2022-08-25T00:49:09.761Z,2.50
2022-08-25T00:52:06.684Z,2.17
2022-08-25T00:55:00.955Z,2.47
2022-08-25T00:57:54.477Z,2.80
2022-08-25T01:00:44.639Z,2.77
2022-08-25T01:03:34.162Z,2.30
2022-08-25T01:06:25.269Z,2.07
2022-08-25T01:09:14.829Z,1.93
2022-08-25T01:12:03.921Z,3.17
2022-08-25T01:14:54.551Z,2.73
2022-08-25T01:17:47.943Z,2.83
2022-08-25T01:20:37.306Z,2.53
2022-08-25T01:23:28.262Z,2.43
2022-08-25T01:26:19.450Z,2.77
2022-08-25T01:29:25.309Z,2.60
2022-08-25T01:32:15.584Z,2.50
2022-08-25T01:35:04.492Z,3.00
2022-08-25T01:37:53.740Z,2.30
2022-08-25T01:40:44.583Z,2.63
2022-08-25T01:43:38.049Z,3.00
2022-08-25T01:46:27.026Z,2.53
2022-08-25T01:49:17.631Z,2.67
2022-08-25T01:52:08.385Z,2.93
2022-08-25T01:54:57.255Z,2.50
2022-08-25T01:57:47.499Z,2.50
2022-08-25T02:00:36.343Z,2.93
2022-08-25T02:03:26.115Z,2.80
2022-08-25T02:06:16.039Z,2.90
2022-08-25T02:09:07.619Z,2.53
2022-08-25T02:11:56.727Z,2.70
2022-08-25T02:14:46.950Z,2.53
2022-08-25T02:17:36.527Z,3.07
2022-08-25T02:20:26.159Z,3.07
2022-08-25T02:23:15.263Z,2.77
2022-08-25T02:26:04.434Z,3.30
2022-08-25T02:28:53.809Z,2.80
2022-08-25T02:31:44.533Z,2.70
2022-08-25T02:34:33.487Z,2.97
2022-08-25T02:37:22.361Z,2.60
2022-08-25T02:40:12.492Z,2.83
2022-08-25T02:43:03.247Z,2.83
2022-08-25T02:45:52.119Z,2.40
2022-08-25T02:48:42.629Z,3.47
2022-08-25T02:51:31.969Z,2.30
2022-08-25T02:54:20.829Z,2.50
2022-08-25T02:57:11.686Z,3.23
2022-08-25T03:00:00.877Z,4.00
2022-08-25T03:02:49.777Z,2.93
2022-08-25T03:05:40.343Z,2.80
2022-08-25T03:08:29.753Z,3.67
2022-08-25T03:11:18.986Z,3.40
2022-08-25T03:14:08.051Z,2.70
2022-08-25T03:16:56.920Z,3.37
2022-08-25T03:19:46.462Z,4.00
2022-08-25T03:22:36.727Z,3.13
2022-08-25T03:25:43.193Z,4.00
2022-08-25T03:28:33.083Z,3.67
2022-08-25T03:31:21.961Z,3.57
2022-08-25T03:34:10.853Z,4.03
2022-08-25T03:37:00.142Z,3.90
2022-08-25T03:39:50.370Z,3.60
2022-08-25T03:42:44.960Z,3.93
2022-08-25T03:45:34.199Z,3.70
2022-08-25T03:48:23.111Z,3.87
2022-08-25T03:51:11.982Z,3.40
2022-08-25T03:54:01.133Z,3.50
2022-08-25T03:56:51.305Z,3.50
2022-08-25T03:59:40.803Z,3.57
2022-08-25T04:02:30.090Z,3.50
2022-08-25T04:05:20.195Z,3.40
2022-08-25T04:08:09.118Z,2.90
2022-08-25T04:10:58.580Z,3.37
2022-08-25T04:13:49.267Z,2.90
2022-08-25T04:16:38.347Z,4.17
2022-08-25T04:19:27.465Z,3.73
2022-08-25T04:22:16.298Z,3.70
2022-08-25T04:25:05.361Z,4.13
2022-08-25T04:27:54.995Z,4.33
2022-08-25T04:30:48.088Z,3.50
2022-08-25T04:33:40.083Z,3.73
2022-08-25T04:36:28.935Z,4.20
2022-08-25T04:39:20.159Z,4.30
2022-08-25T04:42:09.112Z,4.77
2022-08-25T04:44:57.958Z,4.63
2022-08-25T04:47:50.671Z,4.53
2022-08-25T04:50:43.519Z,4.50
2022-08-25T04:53:32.353Z,4.07
2022-08-25T04:56:22.119Z,4.80
2022-08-25T04:59:12.035Z,4.73
2022-08-25T05:02:02.226Z,5.00
2022-08-25T05:04:53.285Z,4.20
2022-08-25T05:07:42.106Z,4.90
2022-08-25T05:10:30.965Z,3.93
2022-08-25T05:13:19.798Z,4.53
2022-08-25T05:16:11.577Z,4.40
2022-08-25T05:19:00.749Z,4.00
2022-08-25T05:21:51.227Z,3.93
2022-08-25T05:24:40.900Z,4.50
2022-08-25T05:27:29.738Z,4.07
2022-08-25T05:30:18.648Z,4.37
2022-08-25T05:33:08.001Z,4.10
2022-08-25T05:35:56.858Z,4.50
2022-08-25T05:38:47.562Z,4.90
2022-08-25T05:41:36.424Z,3.70
2022-08-25T05:44:25.279Z,4.93
2022-08-25T05:47:14.115Z,4.20
2022-08-25T05:50:03.030Z,5.07
2022-08-25T05:52:51.866Z,4.40
2022-08-25T05:55:45.578Z,4.20
2022-08-25T05:58:34.551Z,3.80
2022-08-25T06:01:43.327Z,4.03
2022-08-25T06:04:33.889Z,4.33
2022-08-25T06:07:22.739Z,4.60
2022-08-25T06:10:13.362Z,4.50
2022-08-25T06:13:03.606Z,4.03
2022-08-25T06:15:58.739Z,4.57
2022-08-25T06:18:47.640Z,4.83
2022-08-25T06:21:38.979Z,3.93
2022-08-25T06:24:28.899Z,4.47
2022-08-25T06:27:18.353Z,4.33
2022-08-25T06:30:13.703Z,3.80
2022-08-25T06:33:05.030Z,4.17
2022-08-25T06:35:55.593Z,4.17
2022-08-25T06:38:44.659Z,4.07
2022-08-25T06:41:36.874Z,3.90
2022-08-25T06:44:28.436Z,3.97
2022-08-25T06:47:20.517Z,4.17
2022-08-25T06:50:12.587Z,3.80
2022-08-25T06:53:02.724Z,4.53
2022-08-25T06:56:05.907Z,4.40
2022-08-25T06:58:57.089Z,3.80
2022-08-25T07:01:47.096Z,4.50
2022-08-25T07:04:48.116Z,4.17
2022-08-25T07:07:43.720Z,3.77
2022-08-25T07:10:37.250Z,4.45
2022-08-25T07:13:29.950Z,4.20
2022-08-25T07:16:21.250Z,4.47
2022-08-25T07:19:10.589Z,4.68
2022-08-25T07:22:05.231Z,4.45
2022-08-25T07:24:56.201Z,5.05
2022-08-25T07:27:46.954Z,3.92
2022-08-25T07:30:37.038Z,4.43
2022-08-25T07:33:27.630Z,4.78
2022-08-25T07:36:17.881Z,4.22
2022-08-25T07:39:09.998Z,5.05
2022-08-25T07:42:00.472Z,5.50
2022-08-25T07:44:50.487Z,4.28
2022-08-25T07:47:39.815Z,5.20
2022-08-25T07:50:29.510Z,4.97
2022-08-25T07:53:18.722Z,4.97
2022-08-25T07:56:13.014Z,4.35
2022-08-25T07:59:01.872Z,5.50
2022-08-25T08:01:53.757Z,5.20
2022-08-25T08:04:46.146Z,4.88
2022-08-25T08:07:43.252Z,5.40
2022-08-25T08:10:53.888Z,5.30
2022-08-25T08:13:43.123Z,6.18
2022-08-25T08:16:33.168Z,5.15
2022-08-25T08:19:23.024Z,5.45
2022-08-25T08:22:14.985Z,4.97
2022-08-25T08:25:04.503Z,5.50
2022-08-25T08:27:59.543Z,5.32
2022-08-25T08:30:54.168Z,5.20
2022-08-25T08:33:44.707Z,5.90
2022-08-25T08:36:33.717Z,5.40
2022-08-25T08:39:22.579Z,5.45
2022-08-25T08:42:26.841Z,5.38
2022-08-25T08:45:23.575Z,7.07
2022-08-25T08:48:22.069Z,5.38
2022-08-25T08:51:18.244Z,5.93
2022-08-25T08:54:15.592Z,4.85
2022-08-25T08:57:10.481Z,5.40
2022-08-25T09:00:02.642Z,5.07
2022-08-25T09:02:54.574Z,5.28
2022-08-25T09:05:48.853Z,5.53
2022-08-25T09:08:44.687Z,5.30
2022-08-25T09:11:38.266Z,5.45
2022-08-25T09:14:38.402Z,5.28
2022-08-25T09:17:37.956Z,5.25
2022-08-25T09:20:35.729Z,5.30
2022-08-25T09:23:33.889Z,5.28
2022-08-25T09:26:28.378Z,6.25
2022-08-25T09:29:23.065Z,5.72
2022-08-25T09:32:16.016Z,5.93
2022-08-25T09:35:16.739Z,5.80
2022-08-25T09:38:06.797Z,5.82
2022-08-25T09:40:58.569Z,5.38
2022-08-25T09:43:54.247Z,6.93
2022-08-25T09:46:43.673Z,5.68
2022-08-25T09:49:37.515Z,5.78
2022-08-25T09:52:33.977Z,6.30
2022-08-25T09:55:34.267Z,5.40
2022-08-25T09:58:33.114Z,4.68
2022-08-25T10:01:24.578Z,5.13
2022-08-25T10:04:20.362Z,5.72
2022-08-25T10:07:23.970Z,5.28
2022-08-25T10:10:18.837Z,4.57
2022-08-25T10:13:14.895Z,4.97
2022-08-25T10:16:20.495Z,5.57
2022-08-25T10:19:15.658Z,4.53
2022-08-25T10:22:08.008Z,4.88
2022-08-25T10:25:00.151Z,4.90
2022-08-25T10:27:57.091Z,4.50
2022-08-25T10:30:53.049Z,4.82
2022-08-25T10:33:51.339Z,4.90
2022-08-25T10:36:47.048Z,4.13
2022-08-25T10:39:40.790Z,4.07
2022-08-25T10:42:38.617Z,4.18
2022-08-25T10:45:45.940Z,4.55
2022-08-25T10:49:00.341Z,4.45
2022-08-25T10:51:55.151Z,3.85
2022-08-25T10:54:58.308Z,3.80
2022-08-25T10:57:53.783Z,5.05
2022-08-25T11:00:48.229Z,4.82
2022-08-25T11:03:46.087Z,4.22
2022-08-25T11:06:40.755Z,4.00
2022-08-25T11:09:36.484Z,4.00
2022-08-25T11:12:28.559Z,4.18
2022-08-25T11:15:21.343Z,4.40
2022-08-25T11:18:14.832Z,4.32
2022-08-25T11:21:09.030Z,4.20
2022-08-25T11:24:11.920Z,4.50
2022-08-25T11:27:02.710Z,4.20
2022-08-25T11:29:58.044Z,4.60
2022-08-25T11:32:48.756Z,4.40
2022-08-25T11:35:42.947Z,4.13
2022-08-25T11:38:47.987Z,4.10
2022-08-25T11:41:42.244Z,4.32
2022-08-25T11:44:51.896Z,4.17
2022-08-25T11:48:00.836Z,4.00
2022-08-25T11:50:59.551Z,3.67
2022-08-25T11:53:51.623Z,3.90
2022-08-25T11:56:54.604Z,4.50
2022-08-25T12:00:03.823Z,4.63
2022-08-25T12:02:59.606Z,3.30
2022-08-25T12:06:14.323Z,3.65
2022-08-25T12:09:25.618Z,3.33
2022-08-25T12:12:32.463Z,4.03
2022-08-25T12:15:31.426Z,3.47
2022-08-25T12:18:46.486Z,3.47
2022-08-25T12:21:43.873Z,4.57
2022-08-25T12:25:09.392Z,3.95
2022-08-25T12:28:09.242Z,4.13
2022-08-25T12:31:07.968Z,3.55
2022-08-25T12:34:09.241Z,4.38
2022-08-25T12:37:06.415Z,4.28
2022-08-25T12:40:01.465Z,3.80
2022-08-25T12:43:04.425Z,3.80
2022-08-25T12:46:05.179Z,3.90
2022-08-25T12:49:08.322Z,5.65
2022-08-25T12:52:00.902Z,4.07
2022-08-25T12:55:03.241Z,4.80
2022-08-25T12:57:59.106Z,4.28
2022-08-25T13:01:04.638Z,4.78
2022-08-25T13:04:16.063Z,4.65
2022-08-25T13:07:18.541Z,4.40
2022-08-25T13:10:22.942Z,4.50
2022-08-25T13:13:20.717Z,4.10
2022-08-25T13:16:15.571Z,4.40
2022-08-25T13:19:21.131Z,4.90
2022-08-25T13:22:20.774Z,4.40
2022-08-25T13:25:32.703Z,4.35
2022-08-25T13:28:32.814Z,5.13
2022-08-25T13:31:29.807Z,4.13
2022-08-25T13:34:34.980Z,4.45
2022-08-25T13:37:34.802Z,4.35
2022-08-25T13:40:39.544Z,4.28
2022-08-25T13:43:41.045Z,5.10
2022-08-25T13:46:35.444Z,4.68
2022-08-25T13:49:32.128Z,4.45
2022-08-25T13:52:31.615Z,4.82
2022-08-25T13:55:31.572Z,4.88
2022-08-25T13:58:44.632Z,3.90
2022-08-25T14:01:52.248Z,4.68
2022-08-25T14:05:02.770Z,4.43
2022-08-25T14:08:09.135Z,4.68
2022-08-25T14:11:14.825Z,4.55
2022-08-25T14:14:12.731Z,5.03
2022-08-25T14:17:38.231Z,4.63
2022-08-25T14:20:29.724Z,4.45
2022-08-25T14:23:24.361Z,4.40
2022-08-25T14:26:18.547Z,4.78
2022-08-25T14:29:16.443Z,4.60
2022-08-25T14:32:09.176Z,5.18
2022-08-25T14:35:13.198Z,4.63
2022-08-25T14:38:15.138Z,4.72
2022-08-25T14:44:04.918Z,4.85
2022-08-25T14:47:01.667Z,4.78
2022-08-25T14:49:54.039Z,4.78
2022-08-25T14:52:55.114Z,4.60
2022-08-25T14:55:59.051Z,4.40
2022-08-25T14:58:57.475Z,4.88
2022-08-25T15:01:52.295Z,4.70
2022-08-25T15:04:49.296Z,4.30
2022-08-25T15:08:02.127Z,5.20
2022-08-25T15:11:08.685Z,4.38
2022-08-25T15:14:04.223Z,5.38
2022-08-25T15:16:54.922Z,4.30
2022-08-25T15:19:45.789Z,4.97
2022-08-25T15:22:39.892Z,5.20
2022-08-25T15:25:36.824Z,5.10
2022-08-25T15:28:38.867Z,5.30
2022-08-25T15:31:36.774Z,5.47
2022-08-25T15:34:28.535Z,5.18
2022-08-25T15:37:18.635Z,5.72
2022-08-25T15:40:12.158Z,5.40
2022-08-25T15:43:02.317Z,5.53
2022-08-25T15:46:02.290Z,5.60
2022-08-25T15:48:59.571Z,5.53
2022-08-25T15:51:48.488Z,4.85
2022-08-25T15:54:38.470Z,5.10
2022-08-25T15:57:27.510Z,5.15
2022-08-25T16:00:19.694Z,5.82
2022-08-25T16:03:13.301Z,4.68
2022-08-25T16:06:05.626Z,4.93
2022-08-25T16:08:55.595Z,4.82
2022-08-25T16:11:45.715Z,4.47
2022-08-25T16:14:47.342Z,4.85
2022-08-25T16:17:37.393Z,4.97
2022-08-25T16:20:33.763Z,5.28
2022-08-25T16:23:24.396Z,5.40
2022-08-25T16:26:15.779Z,5.72
2022-08-25T16:29:06.533Z,4.60
2022-08-25T16:31:58.525Z,5.47
2022-08-25T16:34:52.436Z,4.50
2022-08-25T16:37:44.483Z,4.65
2022-08-25T16:40:34.720Z,4.70
2022-08-25T16:43:26.262Z,5.13
2022-08-25T16:46:17.425Z,4.70
2022-08-25T16:49:08.203Z,4.28
2022-08-25T16:51:58.150Z,4.45
2022-08-25T16:55:07.126Z,4.88
2022-08-25T16:57:57.367Z,4.05
2022-08-25T17:00:47.595Z,4.35
2022-08-25T17:03:38.239Z,4.72
2022-08-25T17:06:29.338Z,4.35
2022-08-25T17:09:23.925Z,4.40
2022-08-25T17:12:15.610Z,4.45
2022-08-25T17:15:06.254Z,4.47
2022-08-25T17:17:58.580Z,4.65
2022-08-25T17:20:48.640Z,4.72
2022-08-25T17:23:42.934Z,6.05
2022-08-25T17:26:32.915Z,4.60
2022-08-25T17:29:25.086Z,4.70
2022-08-25T17:32:16.557Z,4.38
2022-08-25T17:35:07.572Z,4.30
2022-08-25T17:37:58.111Z,3.85
2022-08-25T17:40:48.840Z,4.63
2022-08-25T17:43:40.952Z,3.92
2022-08-25T17:46:32.476Z,5.47
2022-08-25T17:49:23.105Z,4.13
2022-08-25T17:52:13.443Z,4.60
2022-08-25T17:55:03.835Z,4.28
2022-08-25T17:57:58.183Z,4.57
2022-08-25T18:00:49.211Z,3.97
2022-08-25T18:03:40.678Z,4.35
2022-08-25T18:06:31.423Z,3.90
2022-08-25T18:09:21.706Z,4.30
2022-08-25T18:12:12.474Z,3.50
2022-08-25T18:15:03.122Z,4.65
2022-08-25T18:17:55.225Z,4.60
2022-08-25T18:20:49.287Z,3.88
2022-08-25T18:23:39.270Z,4.43
2022-08-25T18:26:29.371Z,4.03
2022-08-25T18:29:20.036Z,4.28
2022-08-25T18:32:14.885Z,4.93
2022-08-25T18:35:14.711Z,5.32
2022-08-25T18:38:24.808Z,3.97
2022-08-25T18:41:15.667Z,3.85
2022-08-25T18:44:05.023Z,3.87
2022-08-25T18:46:54.254Z,4.00
2022-08-25T18:49:43.191Z,3.77
2022-08-25T18:52:32.155Z,4.57
2022-08-25T18:55:22.608Z,4.00
2022-08-25T18:58:14.254Z,4.20
2022-08-25T19:01:04.182Z,3.93
2022-08-25T19:03:53.785Z,3.80
2022-08-25T19:06:43.772Z,4.50
2022-08-25T19:09:33.305Z,3.70
2022-08-25T19:12:23.715Z,4.23
2022-08-25T19:15:12.757Z,4.23
2022-08-25T19:18:01.806Z,4.40
2022-08-25T19:20:51.182Z,4.30
2022-08-25T19:23:41.331Z,5.00
2022-08-25T19:26:30.507Z,3.77
2022-08-25T19:29:20.703Z,3.60
2022-08-25T19:32:09.650Z,4.40
2022-08-25T19:35:01.620Z,4.00
2022-08-25T19:37:51.775Z,4.37
2022-08-25T19:40:41.303Z,3.90
2022-08-25T19:43:31.313Z,4.30
2022-08-25T19:46:21.955Z,4.63
2022-08-25T19:49:12.065Z,4.93
2022-08-25T19:52:01.451Z,4.60
2022-08-25T19:54:50.721Z,4.23
2022-08-25T19:57:42.884Z,4.47
2022-08-25T20:00:34.357Z,4.77
2022-08-25T20:03:27.443Z,5.30
2022-08-25T20:06:18.062Z,4.50
2022-08-25T20:09:07.835Z,5.43
2022-08-25T20:12:11.699Z,4.40
2022-08-25T20:15:00.662Z,4.37
2022-08-25T20:17:49.714Z,4.50
2022-08-25T20:20:39.874Z,4.40
2022-08-25T20:23:49.314Z,4.90
2022-08-25T20:26:38.618Z,4.57
2022-08-25T20:29:30.705Z,4.30
2022-08-25T20:32:20.105Z,5.97
2022-08-25T20:35:13.050Z,6.90
2022-08-25T20:38:03.666Z,4.30
2022-08-25T20:40:52.690Z,4.00
2022-08-25T20:43:41.779Z,4.60
2022-08-25T20:46:31.037Z,4.10
2022-08-25T20:49:20.165Z,4.60
2022-08-25T20:52:09.349Z,4.07
2022-08-25T20:54:59.633Z,4.83
2022-08-25T20:57:48.589Z,5.90
2022-08-25T21:00:37.495Z,4.87
2022-08-25T21:03:26.737Z,5.17
2022-08-25T21:06:17.130Z,4.40
2022-08-25T21:09:12.473Z,4.70
2022-08-25T21:12:06.953Z,4.40
2022-08-25T21:14:57.058Z,5.00
2022-08-25T21:17:46.782Z,5.30
2022-08-25T21:20:36.308Z,4.53
2022-08-25T21:23:25.252Z,5.40
2022-08-25T21:26:14.645Z,4.93
2022-08-25T21:29:05.629Z,4.63
2022-08-25T21:31:56.854Z,5.30
2022-08-25T21:34:45.692Z,4.80
2022-08-25T21:37:36.289Z,5.23
2022-08-25T21:40:25.220Z,6.17
2022-08-25T21:43:14.131Z,4.70
2022-08-25T21:46:04.409Z,4.50
2022-08-25T21:48:57.379Z,6.00
2022-08-25T21:51:59.173Z,4.70
2022-08-25T21:54:48.990Z,4.30
2022-08-25T21:57:38.215Z,4.53
2022-08-25T22:00:27.284Z,4.03
2022-08-25T22:03:17.481Z,5.00
2022-08-25T22:06:07.800Z,5.03
2022-08-25T22:08:57.671Z,5.53
2022-08-25T22:11:49.036Z,5.00
2022-08-25T22:14:38.514Z,5.13
2022-08-25T22:17:27.521Z,4.43
2022-08-25T22:20:18.060Z,4.43
2022-08-25T22:23:07.640Z,4.30
2022-08-25T22:25:57.844Z,5.90
2022-08-25T22:28:47.356Z,5.10
2022-08-25T22:31:36.386Z,4.30
2022-08-25T22:34:30.651Z,5.27
2022-08-25T22:37:22.366Z,4.70
2022-08-25T22:40:11.861Z,5.17
2022-08-25T22:43:00.911Z,4.87
2022-08-25T22:45:50.351Z,4.30
2022-08-25T22:48:42.239Z,5.63
2022-08-25T22:51:32.036Z,5.30
2022-08-25T22:54:25.441Z,5.53
2022-08-25T22:57:14.501Z,5.43
2022-08-25T23:00:03.470Z,5.40
2022-08-25T23:02:54.018Z,4.83
2022-08-25T23:05:43.018Z,4.63
2022-08-25T23:08:40.717Z,5.27
2022-08-25T23:11:31.529Z,5.10
2022-08-25T23:14:20.873Z,5.20
2022-08-25T23:17:10.615Z,4.87
2022-08-25T23:19:59.431Z,5.37
2022-08-25T23:22:47.354Z,5.30
2022-08-25T23:25:41.222Z,4.20
2022-08-25T23:28:31.437Z,4.97
2022-08-25T23:31:22.663Z,5.20
2022-08-25T23:34:12.570Z,5.37
2022-08-25T23:37:02.353Z,5.43
2022-08-25T23:39:51.198Z,4.93
2022-08-25T23:42:40.077Z,5.97
2022-08-25T23:45:32.590Z,4.97
2022-08-25T23:48:22.035Z,4.87
2022-08-25T23:51:10.862Z,4.97
2022-08-25T23:53:59.943Z,6.33
2022-08-25T23:56:52.038Z,5.50
2022-08-25T23:59:41.541Z,5.70
